(541)-479-2230 [email protected]

City of Grants Pass

Grants Pass AirportĀ 

Current Weather Conditions Medford Airport:
MEDFORD, OR
Metar
KMFR 141753Z 00000KT 10SM CLR 04/M03 A3047 RMK AO2 SLP325 T00391033 10039 21033 50001

17:53 UTC

Wind: 0° 0kt

Visibility: 10 SM

Sky:

Temp: 4 deg C / 39.2 deg F

Dewpoint: -3 deg C / 26.6 deg F

Pressure: 30.47 inHg

TAF
KMFR 141736Z 1418/1518 VRB02KT P6SM SCT200